sensor_id;sensor_type;location;lat;lon;timestamp;P1;durP1;ratioP1;P2;durP2;ratioP2
36449;SDS011;22475;51.390;7.180;2023-03-05T00:00:20;9.85;;;1.42;;
36449;SDS011;22475;51.390;7.180;2023-03-05T00:02:48;1.80;;;0.70;;
36449;SDS011;22475;51.390;7.180;2023-03-05T00:05:15;9.13;;;1.45;;
36449;SDS011;22475;51.390;7.180;2023-03-05T00:07:42;9.50;;;1.73;;
36449;SDS011;22475;51.390;7.180;2023-03-05T00:10:09;3.63;;;1.10;;
36449;SDS011;22475;51.390;7.180;2023-03-05T00:12:36;2.20;;;1.08;;
36449;SDS011;22475;51.390;7.180;2023-03-05T00:15:03;5.63;;;1.35;;
36449;SDS011;22475;51.390;7.180;2023-03-05T00:17:30;4.25;;;1.30;;
36449;SDS011;22475;51.390;7.180;2023-03-05T00:19:58;5.40;;;0.95;;
36449;SDS011;22475;51.390;7.180;2023-03-05T00:22:25;10.38;;;1.75;;
36449;SDS011;22475;51.390;7.180;2023-03-05T00:24:52;8.90;;;2.45;;
36449;SDS011;22475;51.390;7.180;2023-03-05T00:27:18;8.05;;;2.15;;
36449;SDS011;22475;51.390;7.180;2023-03-05T00:29:45;6.43;;;2.15;;
36449;SDS011;22475;51.390;7.180;2023-03-05T00:32:12;5.85;;;1.60;;
36449;SDS011;22475;51.390;7.180;2023-03-05T00:34:39;5.90;;;1.85;;
36449;SDS011;22475;51.390;7.180;2023-03-05T00:37:07;2.92;;;1.30;;
36449;SDS011;22475;51.390;7.180;2023-03-05T00:39:33;4.32;;;1.33;;
36449;SDS011;22475;51.390;7.180;2023-03-05T00:42:00;3.22;;;1.45;;
36449;SDS011;22475;51.390;7.180;2023-03-05T00:44:27;3.78;;;0.88;;
36449;SDS011;22475;51.390;7.180;2023-03-05T00:46:54;3.05;;;1.58;;
36449;SDS011;22475;51.390;7.180;2023-03-05T00:49:20;2.72;;;0.98;;
36449;SDS011;22475;51.390;7.180;2023-03-05T00:51:47;6.45;;;2.10;;
36449;SDS011;22475;51.390;7.180;2023-03-05T00:54:15;6.05;;;1.70;;
36449;SDS011;22475;51.390;7.180;2023-03-05T00:56:42;7.45;;;1.15;;
36449;SDS011;22475;51.390;7.180;2023-03-05T00:59:09;3.10;;;0.82;;
36449;SDS011;22475;51.390;7.180;2023-03-05T01:01:35;4.82;;;1.27;;
36449;SDS011;22475;51.390;7.180;2023-03-05T01:04:02;6.25;;;1.02;;
36449;SDS011;22475;51.390;7.180;2023-03-05T01:06:29;1.95;;;0.95;;
36449;SDS011;22475;51.390;7.180;2023-03-05T01:08:56;2.35;;;1.30;;
36449;SDS011;22475;51.390;7.180;2023-03-05T01:11:24;9.95;;;1.50;;
36449;SDS011;22475;51.390;7.180;2023-03-05T01:13:51;9.43;;;1.65;;
36449;SDS011;22475;51.390;7.180;2023-03-05T01:16:18;3.80;;;1.20;;
36449;SDS011;22475;51.390;7.180;2023-03-05T01:18:45;8.18;;;2.05;;
36449;SDS011;22475;51.390;7.180;2023-03-05T01:21:11;9.27;;;1.58;;
36449;SDS011;22475;51.390;7.180;2023-03-05T01:23:38;10.13;;;1.35;;
36449;SDS011;22475;51.390;7.180;2023-03-05T01:26:05;8.65;;;1.50;;
36449;SDS011;22475;51.390;7.180;2023-03-05T01:28:34;5.90;;;1.45;;
36449;SDS011;22475;51.390;7.180;2023-03-05T01:31:05;2.40;;;1.00;;
36449;SDS011;22475;51.390;7.180;2023-03-05T01:33:32;2.90;;;1.77;;
36449;SDS011;22475;51.390;7.180;2023-03-05T01:35:59;5.10;;;1.23;;
36449;SDS011;22475;51.390;7.180;2023-03-05T01:38:26;6.68;;;1.42;;
36449;SDS011;22475;51.390;7.180;2023-03-05T01:40:53;5.82;;;1.23;;
36449;SDS011;22475;51.390;7.180;2023-03-05T01:43:21;1.85;;;1.42;;
36449;SDS011;22475;51.390;7.180;2023-03-05T01:48:51;4.93;;;1.33;;
36449;SDS011;22475;51.390;7.180;2023-03-05T01:51:20;4.90;;;1.00;;
36449;SDS011;22475;51.390;7.180;2023-03-05T01:53:49;5.95;;;1.30;;
36449;SDS011;22475;51.390;7.180;2023-03-05T01:56:16;2.08;;;0.90;;
36449;SDS011;22475;51.390;7.180;2023-03-05T01:58:43;2.20;;;0.70;;
36449;SDS011;22475;51.390;7.180;2023-03-05T02:01:11;5.40;;;1.92;;
36449;SDS011;22475;51.390;7.180;2023-03-05T02:03:39;6.13;;;1.48;;
36449;SDS011;22475;51.390;7.180;2023-03-05T02:06:07;4.00;;;1.10;;
36449;SDS011;22475;51.390;7.180;2023-03-05T02:08:34;2.88;;;1.20;;
36449;SDS011;22475;51.390;7.180;2023-03-05T02:11:01;3.53;;;1.35;;
36449;SDS011;22475;51.390;7.180;2023-03-05T02:13:30;10.27;;;1.45;;
36449;SDS011;22475;51.390;7.180;2023-03-05T02:18:26;14.18;;;1.55;;
36449;SDS011;22475;51.390;7.180;2023-03-05T02:20:58;8.40;;;1.15;;
36449;SDS011;22475;51.390;7.180;2023-03-05T02:23:28;4.78;;;1.20;;
36449;SDS011;22475;51.390;7.180;2023-03-05T02:25:56;3.80;;;1.05;;
36449;SDS011;22475;51.390;7.180;2023-03-05T02:28:25;6.30;;;1.58;;
36449;SDS011;22475;51.390;7.180;2023-03-05T02:30:55;2.78;;;1.23;;
36449;SDS011;22475;51.390;7.180;2023-03-05T02:33:22;13.30;;;1.63;;
36449;SDS011;22475;51.390;7.180;2023-03-05T02:35:50;1.70;;;0.77;;
36449;SDS011;22475;51.390;7.180;2023-03-05T02:38:18;3.15;;;1.02;;
36449;SDS011;22475;51.390;7.180;2023-03-05T02:40:47;5.40;;;1.33;;
36449;SDS011;22475;51.390;7.180;2023-03-05T02:43:14;2.30;;;1.08;;
36449;SDS011;22475;51.390;7.180;2023-03-05T02:45:40;4.90;;;1.02;;
36449;SDS011;22475;51.390;7.180;2023-03-05T02:48:07;6.80;;;1.20;;
36449;SDS011;22475;51.390;7.180;2023-03-05T02:50:34;1.52;;;0.50;;
36449;SDS011;22475;51.390;7.180;2023-03-05T02:53:03;3.65;;;0.75;;
36449;SDS011;22475;51.390;7.180;2023-03-05T02:55:31;2.22;;;0.70;;
36449;SDS011;22475;51.390;7.180;2023-03-05T02:57:59;1.90;;;0.73;;
36449;SDS011;22475;51.390;7.180;2023-03-05T03:00:26;3.83;;;0.80;;
36449;SDS011;22475;51.390;7.180;2023-03-05T03:02:53;1.40;;;1.10;;
36449;SDS011;22475;51.390;7.180;2023-03-05T03:05:20;4.80;;;1.27;;
36449;SDS011;22475;51.390;7.180;2023-03-05T03:07:47;3.70;;;1.13;;
36449;SDS011;22475;51.390;7.180;2023-03-05T03:10:14;3.10;;;0.55;;
36449;SDS011;22475;51.390;7.180;2023-03-05T03:12:43;5.22;;;0.77;;
36449;SDS011;22475;51.390;7.180;2023-03-05T03:15:11;1.40;;;0.73;;
36449;SDS011;22475;51.390;7.180;2023-03-05T03:17:39;5.65;;;0.80;;
36449;SDS011;22475;51.390;7.180;2023-03-05T03:20:07;2.63;;;0.73;;
36449;SDS011;22475;51.390;7.180;2023-03-05T03:22:37;1.00;;;0.50;;
36449;SDS011;22475;51.390;7.180;2023-03-05T03:25:05;4.07;;;0.80;;
36449;SDS011;22475;51.390;7.180;2023-03-05T03:27:32;1.05;;;0.80;;
36449;SDS011;22475;51.390;7.180;2023-03-05T03:30:00;2.30;;;0.50;;
36449;SDS011;22475;51.390;7.180;2023-03-05T03:32:29;1.60;;;1.30;;
36449;SDS011;22475;51.390;7.180;2023-03-05T03:34:56;0.65;;;0.40;;
36449;SDS011;22475;51.390;7.180;2023-03-05T03:37:23;2.10;;;0.60;;
36449;SDS011;22475;51.390;7.180;2023-03-05T03:39:50;3.22;;;1.42;;
36449;SDS011;22475;51.390;7.180;2023-03-05T03:42:17;3.33;;;0.82;;
36449;SDS011;22475;51.390;7.180;2023-03-05T03:44:44;2.83;;;0.70;;
36449;SDS011;22475;51.390;7.180;2023-03-05T03:47:12;3.40;;;0.75;;
36449;SDS011;22475;51.390;7.180;2023-03-05T03:49:39;1.30;;;1.02;;
36449;SDS011;22475;51.390;7.180;2023-03-05T03:52:06;3.60;;;0.95;;
36449;SDS011;22475;51.390;7.180;2023-03-05T03:54:33;3.45;;;0.93;;
36449;SDS011;22475;51.390;7.180;2023-03-05T03:57:00;7.20;;;1.27;;
36449;SDS011;22475;51.390;7.180;2023-03-05T03:59:27;5.95;;;1.23;;
36449;SDS011;22475;51.390;7.180;2023-03-05T04:01:54;6.15;;;1.45;;
36449;SDS011;22475;51.390;7.180;2023-03-05T04:04:22;3.58;;;0.75;;
36449;SDS011;22475;51.390;7.180;2023-03-05T04:06:50;4.15;;;1.38;;
36449;SDS011;22475;51.390;7.180;2023-03-05T04:09:17;6.30;;;1.08;;
36449;SDS011;22475;51.390;7.180;2023-03-05T04:11:43;4.40;;;1.40;;
36449;SDS011;22475;51.390;7.180;2023-03-05T04:14:10;5.18;;;1.33;;
36449;SDS011;22475;51.390;7.180;2023-03-05T04:16:37;1.30;;;0.73;;
36449;SDS011;22475;51.390;7.180;2023-03-05T04:19:04;3.30;;;1.15;;
36449;SDS011;22475;51.390;7.180;2023-03-05T04:21:32;1.92;;;1.02;;
36449;SDS011;22475;51.390;7.180;2023-03-05T04:23:59;6.55;;;1.55;;
36449;SDS011;22475;51.390;7.180;2023-03-05T04:26:25;2.53;;;1.50;;
36449;SDS011;22475;51.390;7.180;2023-03-05T04:28:52;0.80;;;0.70;;
36449;SDS011;22475;51.390;7.180;2023-03-05T04:31:19;3.80;;;0.60;;
36449;SDS011;22475;51.390;7.180;2023-03-05T04:33:45;5.68;;;1.90;;
36449;SDS011;22475;51.390;7.180;2023-03-05T04:36:12;5.28;;;1.75;;
36449;SDS011;22475;51.390;7.180;2023-03-05T04:38:40;4.25;;;1.00;;
36449;SDS011;22475;51.390;7.180;2023-03-05T04:41:07;2.13;;;1.02;;
36449;SDS011;22475;51.390;7.180;2023-03-05T04:43:34;3.40;;;0.90;;
36449;SDS011;22475;51.390;7.180;2023-03-05T04:46:00;6.43;;;1.83;;
36449;SDS011;22475;51.390;7.180;2023-03-05T04:48:27;7.43;;;3.97;;
36449;SDS011;22475;51.390;7.180;2023-03-05T04:50:54;8.10;;;2.70;;
36449;SDS011;22475;51.390;7.180;2023-03-05T04:53:22;4.38;;;1.40;;
36449;SDS011;22475;51.390;7.180;2023-03-05T04:55:52;5.45;;;3.03;;
36449;SDS011;22475;51.390;7.180;2023-03-05T04:58:19;4.45;;;2.45;;
36449;SDS011;22475;51.390;7.180;2023-03-05T05:00:47;4.45;;;0.88;;
36449;SDS011;22475;51.390;7.180;2023-03-05T05:03:13;5.97;;;1.40;;
36449;SDS011;22475;51.390;7.180;2023-03-05T05:05:40;2.47;;;0.88;;
36449;SDS011;22475;51.390;7.180;2023-03-05T05:08:07;4.85;;;1.63;;
36449;SDS011;22475;51.390;7.180;2023-03-05T05:10:35;7.07;;;2.90;;
36449;SDS011;22475;51.390;7.180;2023-03-05T05:13:05;6.93;;;2.80;;
36449;SDS011;22475;51.390;7.180;2023-03-05T05:15:32;3.08;;;1.35;;
36449;SDS011;22475;51.390;7.180;2023-03-05T05:17:58;7.72;;;2.38;;
36449;SDS011;22475;51.390;7.180;2023-03-05T05:20:25;2.42;;;1.40;;
36449;SDS011;22475;51.390;7.180;2023-03-05T05:22:52;5.82;;;2.67;;
36449;SDS011;22475;51.390;7.180;2023-03-05T05:25:19;2.28;;;1.80;;
36449;SDS011;22475;51.390;7.180;2023-03-05T05:27:46;8.80;;;3.22;;
36449;SDS011;22475;51.390;7.180;2023-03-05T05:32:42;4.28;;;2.35;;
36449;SDS011;22475;51.390;7.180;2023-03-05T05:35:09;3.38;;;1.40;;
36449;SDS011;22475;51.390;7.180;2023-03-05T05:37:36;3.42;;;2.42;;
36449;SDS011;22475;51.390;7.180;2023-03-05T05:40:03;4.60;;;2.58;;
36449;SDS011;22475;51.390;7.180;2023-03-05T05:42:32;11.38;;;3.10;;
36449;SDS011;22475;51.390;7.180;2023-03-05T05:44:59;5.65;;;2.10;;
36449;SDS011;22475;51.390;7.180;2023-03-05T05:47:28;9.23;;;3.55;;
36449;SDS011;22475;51.390;7.180;2023-03-05T05:49:55;7.43;;;3.35;;
36449;SDS011;22475;51.390;7.180;2023-03-05T05:52:22;4.95;;;2.17;;
36449;SDS011;22475;51.390;7.180;2023-03-05T05:54:48;11.73;;;3.15;;
36449;SDS011;22475;51.390;7.180;2023-03-05T05:57:15;11.30;;;3.70;;
36449;SDS011;22475;51.390;7.180;2023-03-05T05:59:42;5.43;;;2.65;;
36449;SDS011;22475;51.390;7.180;2023-03-05T06:02:09;5.18;;;1.83;;
36449;SDS011;22475;51.390;7.180;2023-03-05T06:04:37;9.63;;;3.38;;
36449;SDS011;22475;51.390;7.180;2023-03-05T06:07:04;6.03;;;3.08;;
36449;SDS011;22475;51.390;7.180;2023-03-05T06:09:31;9.65;;;3.13;;
36449;SDS011;22475;51.390;7.180;2023-03-05T06:12:00;9.48;;;3.03;;
36449;SDS011;22475;51.390;7.180;2023-03-05T06:14:27;3.97;;;2.65;;
36449;SDS011;22475;51.390;7.180;2023-03-05T06:16:53;4.47;;;2.33;;
36449;SDS011;22475;51.390;7.180;2023-03-05T06:19:20;5.15;;;2.15;;
36449;SDS011;22475;51.390;7.180;2023-03-05T06:21:48;10.63;;;2.95;;
36449;SDS011;22475;51.390;7.180;2023-03-05T06:24:15;6.43;;;1.88;;
36449;SDS011;22475;51.390;7.180;2023-03-05T06:26:43;7.95;;;2.00;;
36449;SDS011;22475;51.390;7.180;2023-03-05T06:29:12;18.15;;;2.55;;
36449;SDS011;22475;51.390;7.180;2023-03-05T06:31:39;5.63;;;1.60;;
36449;SDS011;22475;51.390;7.180;2023-03-05T06:34:06;2.63;;;2.15;;
36449;SDS011;22475;51.390;7.180;2023-03-05T06:36:32;2.42;;;1.63;;
36449;SDS011;22475;51.390;7.180;2023-03-05T06:39:00;2.30;;;1.27;;
36449;SDS011;22475;51.390;7.180;2023-03-05T06:41:29;3.72;;;2.00;;
36449;SDS011;22475;51.390;7.180;2023-03-05T06:43:57;4.20;;;2.08;;
36449;SDS011;22475;51.390;7.180;2023-03-05T06:46:27;6.43;;;2.10;;
36449;SDS011;22475;51.390;7.180;2023-03-05T06:48:55;3.78;;;1.92;;
36449;SDS011;22475;51.390;7.180;2023-03-05T06:51:24;4.22;;;1.77;;
36449;SDS011;22475;51.390;7.180;2023-03-05T06:53:52;3.50;;;1.92;;
36449;SDS011;22475;51.390;7.180;2023-03-05T06:56:21;4.05;;;1.88;;
36449;SDS011;22475;51.390;7.180;2023-03-05T06:58:48;8.43;;;2.40;;
36449;SDS011;22475;51.390;7.180;2023-03-05T07:01:16;4.72;;;2.22;;
36449;SDS011;22475;51.390;7.180;2023-03-05T07:03:43;3.92;;;1.58;;
36449;SDS011;22475;51.390;7.180;2023-03-05T07:06:11;6.05;;;1.50;;
36449;SDS011;22475;51.390;7.180;2023-03-05T07:08:39;3.03;;;1.63;;
36449;SDS011;22475;51.390;7.180;2023-03-05T07:11:08;7.53;;;2.15;;
36449;SDS011;22475;51.390;7.180;2023-03-05T07:13:36;6.18;;;1.48;;
36449;SDS011;22475;51.390;7.180;2023-03-05T07:16:04;4.25;;;1.30;;
36449;SDS011;22475;51.390;7.180;2023-03-05T07:18:31;11.52;;;1.17;;
36449;SDS011;22475;51.390;7.180;2023-03-05T07:21:00;3.38;;;1.25;;
36449;SDS011;22475;51.390;7.180;2023-03-05T07:23:28;7.90;;;1.07;;
36449;SDS011;22475;51.390;7.180;2023-03-05T07:25:55;1.67;;;1.42;;
36449;SDS011;22475;51.390;7.180;2023-03-05T07:28:21;4.10;;;1.63;;
36449;SDS011;22475;51.390;7.180;2023-03-05T07:30:55;6.82;;;1.35;;
36449;SDS011;22475;51.390;7.180;2023-03-05T07:33:22;3.22;;;0.98;;
36449;SDS011;22475;51.390;7.180;2023-03-05T07:35:49;6.35;;;1.40;;
36449;SDS011;22475;51.390;7.180;2023-03-05T07:38:16;5.10;;;1.20;;
36449;SDS011;22475;51.390;7.180;2023-03-05T07:40:43;4.53;;;1.30;;
36449;SDS011;22475;51.390;7.180;2023-03-05T07:43:10;4.95;;;1.00;;
36449;SDS011;22475;51.390;7.180;2023-03-05T07:45:38;6.32;;;1.52;;
36449;SDS011;22475;51.390;7.180;2023-03-05T07:48:07;3.70;;;1.27;;
36449;SDS011;22475;51.390;7.180;2023-03-05T07:50:37;5.80;;;1.55;;
36449;SDS011;22475;51.390;7.180;2023-03-05T07:53:04;6.78;;;1.52;;
36449;SDS011;22475;51.390;7.180;2023-03-05T07:55:31;9.05;;;1.38;;
36449;SDS011;22475;51.390;7.180;2023-03-05T07:57:57;3.10;;;1.65;;
36449;SDS011;22475;51.390;7.180;2023-03-05T08:00:24;5.05;;;1.60;;
36449;SDS011;22475;51.390;7.180;2023-03-05T08:02:51;8.80;;;1.55;;
36449;SDS011;22475;51.390;7.180;2023-03-05T08:05:19;14.40;;;2.22;;
36449;SDS011;22475;51.390;7.180;2023-03-05T08:07:46;2.47;;;1.30;;
36449;SDS011;22475;51.390;7.180;2023-03-05T08:10:12;1.75;;;1.00;;
36449;SDS011;22475;51.390;7.180;2023-03-05T08:12:39;3.58;;;1.70;;
36449;SDS011;22475;51.390;7.180;2023-03-05T08:15:06;9.10;;;1.42;;
36449;SDS011;22475;51.390;7.180;2023-03-05T08:17:34;4.95;;;1.38;;
36449;SDS011;22475;51.390;7.180;2023-03-05T08:20:00;8.10;;;3.67;;
36449;SDS011;22475;51.390;7.180;2023-03-05T08:22:30;15.50;;;3.47;;
36449;SDS011;22475;51.390;7.180;2023-03-05T08:24:58;11.07;;;3.72;;
36449;SDS011;22475;51.390;7.180;2023-03-05T08:27:25;5.82;;;2.47;;
36449;SDS011;22475;51.390;7.180;2023-03-05T08:29:52;10.43;;;3.95;;
36449;SDS011;22475;51.390;7.180;2023-03-05T08:32:19;2.88;;;1.25;;
36449;SDS011;22475;51.390;7.180;2023-03-05T08:34:46;10.77;;;3.90;;
36449;SDS011;22475;51.390;7.180;2023-03-05T08:37:13;8.65;;;2.25;;
36449;SDS011;22475;51.390;7.180;2023-03-05T08:39:41;3.90;;;1.20;;
36449;SDS011;22475;51.390;7.180;2023-03-05T08:42:08;7.15;;;1.77;;
36449;SDS011;22475;51.390;7.180;2023-03-05T08:44:34;7.80;;;3.35;;
36449;SDS011;22475;51.390;7.180;2023-03-05T08:47:01;4.78;;;2.38;;
36449;SDS011;22475;51.390;7.180;2023-03-05T08:49:28;4.72;;;1.65;;
36449;SDS011;22475;51.390;7.180;2023-03-05T08:51:54;5.97;;;2.38;;
36449;SDS011;22475;51.390;7.180;2023-03-05T08:54:21;4.03;;;1.55;;
36449;SDS011;22475;51.390;7.180;2023-03-05T08:56:49;4.80;;;2.40;;
36449;SDS011;22475;51.390;7.180;2023-03-05T08:59:16;8.38;;;2.97;;
36449;SDS011;22475;51.390;7.180;2023-03-05T09:01:43;14.85;;;3.65;;
36449;SDS011;22475;51.390;7.180;2023-03-05T09:04:09;6.00;;;2.15;;
36449;SDS011;22475;51.390;7.180;2023-03-05T09:06:36;1.60;;;1.35;;
36449;SDS011;22475;51.390;7.180;2023-03-05T09:09:04;3.83;;;2.55;;
36449;SDS011;22475;51.390;7.180;2023-03-05T09:11:31;9.02;;;3.60;;
36449;SDS011;22475;51.390;7.180;2023-03-05T09:14:01;7.35;;;2.17;;
36449;SDS011;22475;51.390;7.180;2023-03-05T09:16:28;11.20;;;3.15;;
36449;SDS011;22475;51.390;7.180;2023-03-05T09:18:55;6.75;;;2.63;;
36449;SDS011;22475;51.390;7.180;2023-03-05T09:21:22;4.78;;;3.88;;
36449;SDS011;22475;51.390;7.180;2023-03-05T09:23:48;5.10;;;3.72;;
36449;SDS011;22475;51.390;7.180;2023-03-05T09:26:15;8.05;;;3.88;;
36449;SDS011;22475;51.390;7.180;2023-03-05T09:28:44;4.05;;;3.20;;
36449;SDS011;22475;51.390;7.180;2023-03-05T09:31:13;5.75;;;5.22;;
36449;SDS011;22475;51.390;7.180;2023-03-05T09:33:40;7.68;;;4.63;;
36449;SDS011;22475;51.390;7.180;2023-03-05T09:36:14;5.10;;;3.05;;
36449;SDS011;22475;51.390;7.180;2023-03-05T09:38:43;9.63;;;6.18;;
36449;SDS011;22475;51.390;7.180;2023-03-05T09:41:13;5.88;;;2.90;;
36449;SDS011;22475;51.390;7.180;2023-03-05T09:43:44;16.67;;;3.08;;
36449;SDS011;22475;51.390;7.180;2023-03-05T09:46:25;8.20;;;3.50;;
36449;SDS011;22475;51.390;7.180;2023-03-05T09:48:59;5.00;;;3.72;;
36449;SDS011;22475;51.390;7.180;2023-03-05T09:51:36;11.48;;;6.13;;
36449;SDS011;22475;51.390;7.180;2023-03-05T09:54:08;7.65;;;3.10;;
36449;SDS011;22475;51.390;7.180;2023-03-05T09:56:43;6.65;;;4.65;;
36449;SDS011;22475;51.390;7.180;2023-03-05T09:59:16;7.60;;;4.28;;
36449;SDS011;22475;51.390;7.180;2023-03-05T10:01:52;7.82;;;3.72;;
36449;SDS011;22475;51.390;7.180;2023-03-05T10:04:24;14.27;;;4.32;;
36449;SDS011;22475;51.390;7.180;2023-03-05T10:06:54;14.40;;;6.07;;
36449;SDS011;22475;51.390;7.180;2023-03-05T10:09:40;5.43;;;3.25;;
36449;SDS011;22475;51.390;7.180;2023-03-05T10:12:12;12.35;;;4.60;;
36449;SDS011;22475;51.390;7.180;2023-03-05T10:14:45;12.82;;;6.13;;
36449;SDS011;22475;51.390;7.180;2023-03-05T10:17:20;12.18;;;6.13;;
36449;SDS011;22475;51.390;7.180;2023-03-05T10:20:00;14.13;;;5.63;;
36449;SDS011;22475;51.390;7.180;2023-03-05T10:22:40;18.95;;;6.72;;
36449;SDS011;22475;51.390;7.180;2023-03-05T10:27:48;5.82;;;3.80;;
36449;SDS011;22475;51.390;7.180;2023-03-05T10:30:19;17.02;;;7.38;;
36449;SDS011;22475;51.390;7.180;2023-03-05T10:32:57;4.60;;;3.33;;
36449;SDS011;22475;51.390;7.180;2023-03-05T10:38:44;13.55;;;7.45;;
36449;SDS011;22475;51.390;7.180;2023-03-05T10:41:30;14.55;;;8.05;;
36449;SDS011;22475;51.390;7.180;2023-03-05T10:44:03;12.52;;;4.80;;
36449;SDS011;22475;51.390;7.180;2023-03-05T10:46:36;18.85;;;11.02;;
36449;SDS011;22475;51.390;7.180;2023-03-05T10:49:11;10.40;;;5.65;;
36449;SDS011;22475;51.390;7.180;2023-03-05T10:51:43;12.48;;;9.40;;
36449;SDS011;22475;51.390;7.180;2023-03-05T10:54:17;11.05;;;7.18;;
36449;SDS011;22475;51.390;7.180;2023-03-05T10:56:49;16.58;;;8.60;;
36449;SDS011;22475;51.390;7.180;2023-03-05T10:59:16;13.07;;;9.80;;
36449;SDS011;22475;51.390;7.180;2023-03-05T11:01:43;17.45;;;11.48;;
36449;SDS011;22475;51.390;7.180;2023-03-05T11:04:29;15.32;;;8.73;;
36449;SDS011;22475;51.390;7.180;2023-03-05T11:07:00;14.45;;;9.60;;
36449;SDS011;22475;51.390;7.180;2023-03-05T11:09:31;14.45;;;9.75;;
36449;SDS011;22475;51.390;7.180;2023-03-05T11:15:02;10.23;;;6.50;;
36449;SDS011;22475;51.390;7.180;2023-03-05T11:17:32;12.20;;;9.18;;
36449;SDS011;22475;51.390;7.180;2023-03-05T11:20:30;13.75;;;8.90;;
36449;SDS011;22475;51.390;7.180;2023-03-05T11:23:03;19.90;;;10.43;;
36449;SDS011;22475;51.390;7.180;2023-03-05T11:25:34;13.38;;;9.88;;
36449;SDS011;22475;51.390;7.180;2023-03-05T11:28:16;16.58;;;8.95;;
36449;SDS011;22475;51.390;7.180;2023-03-05T11:30:45;14.55;;;7.22;;
36449;SDS011;22475;51.390;7.180;2023-03-05T11:33:21;15.07;;;5.95;;
36449;SDS011;22475;51.390;7.180;2023-03-05T11:35:50;11.68;;;7.15;;
36449;SDS011;22475;51.390;7.180;2023-03-05T11:38:18;7.10;;;6.20;;
36449;SDS011;22475;51.390;7.180;2023-03-05T11:40:48;9.10;;;6.00;;
36449;SDS011;22475;51.390;7.180;2023-03-05T11:43:17;7.60;;;6.15;;
36449;SDS011;22475;51.390;7.180;2023-03-05T11:45:46;6.97;;;6.07;;
36449;SDS011;22475;51.390;7.180;2023-03-05T11:48:17;6.77;;;4.67;;
36449;SDS011;22475;51.390;7.180;2023-03-05T11:50:52;7.25;;;4.47;;
36449;SDS011;22475;51.390;7.180;2023-03-05T11:53:23;4.85;;;3.45;;
36449;SDS011;22475;51.390;7.180;2023-03-05T11:55:53;3.63;;;3.25;;
36449;SDS011;22475;51.390;7.180;2023-03-05T11:58:26;4.30;;;3.40;;
36449;SDS011;22475;51.390;7.180;2023-03-05T12:00:56;6.30;;;3.70;;
36449;SDS011;22475;51.390;7.180;2023-03-05T12:03:24;7.43;;;5.63;;
36449;SDS011;22475;51.390;7.180;2023-03-05T12:06:07;2.95;;;2.65;;
36449;SDS011;22475;51.390;7.180;2023-03-05T12:08:40;2.50;;;2.30;;
36449;SDS011;22475;51.390;7.180;2023-03-05T12:11:13;3.75;;;3.00;;
36449;SDS011;22475;51.390;7.180;2023-03-05T12:13:43;11.88;;;4.80;;
36449;SDS011;22475;51.390;7.180;2023-03-05T12:16:15;3.25;;;2.38;;
36449;SDS011;22475;51.390;7.180;2023-03-05T12:18:50;6.22;;;4.85;;
36449;SDS011;22475;51.390;7.180;2023-03-05T12:21:26;10.15;;;4.45;;
36449;SDS011;22475;51.390;7.180;2023-03-05T12:23:58;11.05;;;4.43;;
36449;SDS011;22475;51.390;7.180;2023-03-05T12:29:36;9.05;;;3.28;;
36449;SDS011;22475;51.390;7.180;2023-03-05T12:32:05;2.25;;;1.60;;
36449;SDS011;22475;51.390;7.180;2023-03-05T12:35:31;4.72;;;3.65;;
36449;SDS011;22475;51.390;7.180;2023-03-05T12:44:08;7.07;;;3.78;;
36449;SDS011;22475;51.390;7.180;2023-03-05T12:46:42;3.75;;;3.45;;
36449;SDS011;22475;51.390;7.180;2023-03-05T12:49:28;4.40;;;2.55;;
36449;SDS011;22475;51.390;7.180;2023-03-05T12:52:00;4.03;;;2.72;;
36449;SDS011;22475;51.390;7.180;2023-03-05T12:54:32;3.30;;;2.45;;
36449;SDS011;22475;51.390;7.180;2023-03-05T12:57:00;4.32;;;3.15;;
36449;SDS011;22475;51.390;7.180;2023-03-05T12:59:31;5.65;;;2.97;;
36449;SDS011;22475;51.390;7.180;2023-03-05T13:02:13;4.28;;;2.60;;
36449;SDS011;22475;51.390;7.180;2023-03-05T13:04:48;3.78;;;3.47;;
36449;SDS011;22475;51.390;7.180;2023-03-05T13:07:17;5.82;;;3.92;;
36449;SDS011;22475;51.390;7.180;2023-03-05T13:09:52;3.55;;;2.83;;
36449;SDS011;22475;51.390;7.180;2023-03-05T13:12:20;4.75;;;3.78;;
36449;SDS011;22475;51.390;7.180;2023-03-05T13:14:55;7.18;;;5.28;;
36449;SDS011;22475;51.390;7.180;2023-03-05T13:20:27;4.15;;;3.42;;
36449;SDS011;22475;51.390;7.180;2023-03-05T13:25:58;4.05;;;3.47;;
36449;SDS011;22475;51.390;7.180;2023-03-05T13:28:27;4.93;;;4.07;;
36449;SDS011;22475;51.390;7.180;2023-03-05T13:30:55;4.22;;;3.22;;
36449;SDS011;22475;51.390;7.180;2023-03-05T13:33:24;7.22;;;4.75;;
36449;SDS011;22475;51.390;7.180;2023-03-05T13:35:53;8.77;;;4.82;;
36449;SDS011;22475;51.390;7.180;2023-03-05T13:38:21;8.05;;;3.97;;
36449;SDS011;22475;51.390;7.180;2023-03-05T13:43:30;6.05;;;4.50;;
36449;SDS011;22475;51.390;7.180;2023-03-05T13:45:57;3.75;;;3.30;;
36449;SDS011;22475;51.390;7.180;2023-03-05T13:48:24;3.15;;;2.95;;
36449;SDS011;22475;51.390;7.180;2023-03-05T13:50:53;4.07;;;3.45;;
36449;SDS011;22475;51.390;7.180;2023-03-05T13:53:21;8.20;;;2.95;;
36449;SDS011;22475;51.390;7.180;2023-03-05T13:55:50;5.78;;;4.65;;
36449;SDS011;22475;51.390;7.180;2023-03-05T14:01:26;10.80;;;3.95;;
36449;SDS011;22475;51.390;7.180;2023-03-05T14:03:55;3.80;;;3.47;;
36449;SDS011;22475;51.390;7.180;2023-03-05T14:06:26;5.18;;;3.05;;
36449;SDS011;22475;51.390;7.180;2023-03-05T14:09:01;3.53;;;3.22;;
36449;SDS011;22475;51.390;7.180;2023-03-05T14:11:31;4.13;;;3.25;;
36449;SDS011;22475;51.390;7.180;2023-03-05T14:14:01;3.78;;;2.88;;
36449;SDS011;22475;51.390;7.180;2023-03-05T14:16:35;3.97;;;3.10;;
36449;SDS011;22475;51.390;7.180;2023-03-05T14:19:02;2.97;;;2.75;;
36449;SDS011;22475;51.390;7.180;2023-03-05T14:21:44;3.70;;;2.95;;
36449;SDS011;22475;51.390;7.180;2023-03-05T14:24:12;4.90;;;3.28;;
36449;SDS011;22475;51.390;7.180;2023-03-05T14:26:46;6.88;;;3.72;;
36449;SDS011;22475;51.390;7.180;2023-03-05T14:29:16;4.53;;;2.95;;
36449;SDS011;22475;51.390;7.180;2023-03-05T14:31:48;3.08;;;2.20;;
36449;SDS011;22475;51.390;7.180;2023-03-05T14:34:18;9.25;;;3.42;;
36449;SDS011;22475;51.390;7.180;2023-03-05T14:36:48;4.20;;;2.83;;
36449;SDS011;22475;51.390;7.180;2023-03-05T14:39:26;3.10;;;2.53;;
36449;SDS011;22475;51.390;7.180;2023-03-05T14:42:13;9.27;;;3.55;;
36449;SDS011;22475;51.390;7.180;2023-03-05T14:44:49;3.08;;;2.83;;
36449;SDS011;22475;51.390;7.180;2023-03-05T14:47:17;3.83;;;2.97;;
36449;SDS011;22475;51.390;7.180;2023-03-05T14:49:44;3.10;;;2.50;;
36449;SDS011;22475;51.390;7.180;2023-03-05T14:52:12;3.22;;;2.92;;
36449;SDS011;22475;51.390;7.180;2023-03-05T14:54:40;3.03;;;2.80;;
36449;SDS011;22475;51.390;7.180;2023-03-05T14:57:09;2.88;;;2.67;;
36449;SDS011;22475;51.390;7.180;2023-03-05T14:59:40;5.80;;;3.30;;
36449;SDS011;22475;51.390;7.180;2023-03-05T15:02:09;2.50;;;2.30;;
36449;SDS011;22475;51.390;7.180;2023-03-05T15:04:41;3.42;;;3.10;;
36449;SDS011;22475;51.390;7.180;2023-03-05T15:07:10;9.77;;;2.92;;
36449;SDS011;22475;51.390;7.180;2023-03-05T15:09:44;2.90;;;2.65;;
36449;SDS011;22475;51.390;7.180;2023-03-05T15:12:12;14.60;;;2.70;;
36449;SDS011;22475;51.390;7.180;2023-03-05T15:14:41;26.02;;;4.00;;
36449;SDS011;22475;51.390;7.180;2023-03-05T15:17:12;206.40;;;10.48;;
36449;SDS011;22475;51.390;7.180;2023-03-05T15:19:44;59.60;;;5.32;;
36449;SDS011;22475;51.390;7.180;2023-03-05T15:22:12;53.22;;;5.45;;
36449;SDS011;22475;51.390;7.180;2023-03-05T15:24:40;39.47;;;5.15;;
36449;SDS011;22475;51.390;7.180;2023-03-05T15:27:07;161.35;;;15.65;;
36449;SDS011;22475;51.390;7.180;2023-03-05T15:29:34;189.00;;;14.98;;
36449;SDS011;22475;51.390;7.180;2023-03-05T15:32:01;101.32;;;11.07;;
36449;SDS011;22475;51.390;7.180;2023-03-05T15:34:29;64.10;;;8.68;;